sensor_id;sensor_type;location;lat;lon;timestamp;temperature;humidity
3262;DHT22;1643;47.746;9.000;2024-02-14T00:01:42;6.40;99.90
3262;DHT22;1643;47.746;9.000;2024-02-14T00:04:08;6.40;99.90
3262;DHT22;1643;47.746;9.000;2024-02-14T00:06:37;6.40;99.90
3262;DHT22;1643;47.746;9.000;2024-02-14T00:09:02;6.30;99.90
3262;DHT22;1643;47.746;9.000;2024-02-14T00:11:28;6.30;99.90
3262;DHT22;1643;47.746;9.000;2024-02-14T00:13:54;6.40;99.90
3262;DHT22;1643;47.746;9.000;2024-02-14T00:16:22;6.40;99.90
3262;DHT22;1643;47.746;9.000;2024-02-14T00:18:47;6.40;99.90
3262;DHT22;1643;47.746;9.000;2024-02-14T00:21:13;6.40;99.90
3262;DHT22;1643;47.746;9.000;2024-02-14T00:23:38;6.40;99.90
3262;DHT22;1643;47.746;9.000;2024-02-14T00:26:04;6.40;99.90
3262;DHT22;1643;47.746;9.000;2024-02-14T00:28:30;6.40;99.90
3262;DHT22;1643;47.746;9.000;2024-02-14T00:30:55;6.40;99.90
3262;DHT22;1643;47.746;9.000;2024-02-14T00:33:21;6.40;99.90
3262;DHT22;1643;47.746;9.000;2024-02-14T00:35:47;6.30;99.90
3262;DHT22;1643;47.746;9.000;2024-02-14T00:38:13;6.40;99.90
3262;DHT22;1643;47.746;9.000;2024-02-14T00:40:39;6.30;99.90
3262;DHT22;1643;47.746;9.000;2024-02-14T00:43:04;6.30;99.90
3262;DHT22;1643;47.746;9.000;2024-02-14T00:45:30;6.20;99.90
3262;DHT22;1643;47.746;9.000;2024-02-14T00:47:58;6.20;99.90
3262;DHT22;1643;47.746;9.000;2024-02-14T00:50:24;6.20;99.90
3262;DHT22;1643;47.746;9.000;2024-02-14T00:52:50;6.30;99.90
3262;DHT22;1643;47.746;9.000;2024-02-14T00:55:16;6.30;99.90
3262;DHT22;1643;47.746;9.000;2024-02-14T00:57:41;6.30;99.90
3262;DHT22;1643;47.746;9.000;2024-02-14T01:00:08;6.30;99.90
3262;DHT22;1643;47.746;9.000;2024-02-14T01:02:34;6.30;99.90
3262;DHT22;1643;47.746;9.000;2024-02-14T01:04:59;6.30;99.90
3262;DHT22;1643;47.746;9.000;2024-02-14T01:07:25;6.20;99.90
3262;DHT22;1643;47.746;9.000;2024-02-14T01:09:51;6.30;99.90
3262;DHT22;1643;47.746;9.000;2024-02-14T01:12:16;6.30;99.90
3262;DHT22;1643;47.746;9.000;2024-02-14T01:14:42;6.30;99.90
3262;DHT22;1643;47.746;9.000;2024-02-14T01:17:07;6.30;99.90
3262;DHT22;1643;47.746;9.000;2024-02-14T01:19:33;6.30;99.90
3262;DHT22;1643;47.746;9.000;2024-02-14T01:21:59;6.30;99.90
3262;DHT22;1643;47.746;9.000;2024-02-14T01:24:25;6.30;99.90
3262;DHT22;1643;47.746;9.000;2024-02-14T01:26:52;6.30;99.90
3262;DHT22;1643;47.746;9.000;2024-02-14T01:29:19;6.40;99.90
3262;DHT22;1643;47.746;9.000;2024-02-14T01:31:45;6.40;99.90
3262;DHT22;1643;47.746;9.000;2024-02-14T01:34:11;6.40;99.90
3262;DHT22;1643;47.746;9.000;2024-02-14T01:36:36;6.40;99.90
3262;DHT22;1643;47.746;9.000;2024-02-14T01:39:04;6.30;99.90
3262;DHT22;1643;47.746;9.000;2024-02-14T01:41:36;6.30;99.90
3262;DHT22;1643;47.746;9.000;2024-02-14T01:44:01;6.30;99.90
3262;DHT22;1643;47.746;9.000;2024-02-14T01:46:27;6.30;99.90
3262;DHT22;1643;47.746;9.000;2024-02-14T01:48:53;6.30;99.90
3262;DHT22;1643;47.746;9.000;2024-02-14T01:51:20;6.30;99.90
3262;DHT22;1643;47.746;9.000;2024-02-14T01:53:47;6.30;99.90
3262;DHT22;1643;47.746;9.000;2024-02-14T01:56:13;6.20;99.90
3262;DHT22;1643;47.746;9.000;2024-02-14T01:58:39;6.20;99.90
3262;DHT22;1643;47.746;9.000;2024-02-14T02:01:05;6.30;99.90
3262;DHT22;1643;47.746;9.000;2024-02-14T02:03:30;6.20;99.90
3262;DHT22;1643;47.746;9.000;2024-02-14T02:06:01;6.20;99.90
3262;DHT22;1643;47.746;9.000;2024-02-14T02:08:26;6.10;99.90
3262;DHT22;1643;47.746;9.000;2024-02-14T02:10:52;6.10;99.90
3262;DHT22;1643;47.746;9.000;2024-02-14T02:13:18;6.10;99.90
3262;DHT22;1643;47.746;9.000;2024-02-14T02:15:45;6.10;99.90
3262;DHT22;1643;47.746;9.000;2024-02-14T02:18:11;6.10;99.90
3262;DHT22;1643;47.746;9.000;2024-02-14T02:20:36;6.10;99.90
3262;DHT22;1643;47.746;9.000;2024-02-14T02:23:02;6.00;99.90
3262;DHT22;1643;47.746;9.000;2024-02-14T02:25:28;6.00;99.90
3262;DHT22;1643;47.746;9.000;2024-02-14T02:27:54;6.00;99.90
3262;DHT22;1643;47.746;9.000;2024-02-14T02:30:23;6.00;99.90
3262;DHT22;1643;47.746;9.000;2024-02-14T02:32:49;6.10;99.90
3262;DHT22;1643;47.746;9.000;2024-02-14T02:35:18;6.10;99.90
3262;DHT22;1643;47.746;9.000;2024-02-14T02:37:46;6.00;99.90
3262;DHT22;1643;47.746;9.000;2024-02-14T02:40:13;6.00;99.90
3262;DHT22;1643;47.746;9.000;2024-02-14T02:42:40;6.00;99.90
3262;DHT22;1643;47.746;9.000;2024-02-14T02:45:06;6.00;99.90
3262;DHT22;1643;47.746;9.000;2024-02-14T02:47:32;5.90;99.90
3262;DHT22;1643;47.746;9.000;2024-02-14T02:49:58;5.90;99.90
3262;DHT22;1643;47.746;9.000;2024-02-14T02:52:27;6.00;99.90
3262;DHT22;1643;47.746;9.000;2024-02-14T02:54:53;6.00;99.90
3262;DHT22;1643;47.746;9.000;2024-02-14T02:57:19;6.10;99.90
3262;DHT22;1643;47.746;9.000;2024-02-14T02:59:45;6.00;99.90
3262;DHT22;1643;47.746;9.000;2024-02-14T03:02:14;6.00;99.90
3262;DHT22;1643;47.746;9.000;2024-02-14T03:04:39;5.90;99.90
3262;DHT22;1643;47.746;9.000;2024-02-14T03:07:05;5.80;99.90
3262;DHT22;1643;47.746;9.000;2024-02-14T03:09:35;5.80;99.90
3262;DHT22;1643;47.746;9.000;2024-02-14T03:12:02;5.80;99.90
3262;DHT22;1643;47.746;9.000;2024-02-14T03:14:31;5.80;99.90
3262;DHT22;1643;47.746;9.000;2024-02-14T03:17:00;5.70;99.90
3262;DHT22;1643;47.746;9.000;2024-02-14T03:19:27;5.70;99.90
3262;DHT22;1643;47.746;9.000;2024-02-14T03:21:53;5.70;99.90
3262;DHT22;1643;47.746;9.000;2024-02-14T03:24:19;5.80;99.90
3262;DHT22;1643;47.746;9.000;2024-02-14T03:26:45;5.70;99.90
3262;DHT22;1643;47.746;9.000;2024-02-14T03:29:11;5.70;99.90
3262;DHT22;1643;47.746;9.000;2024-02-14T03:31:37;5.70;99.90
3262;DHT22;1643;47.746;9.000;2024-02-14T03:34:03;5.80;99.90
3262;DHT22;1643;47.746;9.000;2024-02-14T03:36:28;5.80;99.90
3262;DHT22;1643;47.746;9.000;2024-02-14T03:38:59;5.80;99.90
3262;DHT22;1643;47.746;9.000;2024-02-14T03:41:29;5.80;99.90
3262;DHT22;1643;47.746;9.000;2024-02-14T03:43:55;5.90;99.90
3262;DHT22;1643;47.746;9.000;2024-02-14T03:46:24;5.80;99.90
3262;DHT22;1643;47.746;9.000;2024-02-14T03:48:49;5.80;99.90
3262;DHT22;1643;47.746;9.000;2024-02-14T03:51:15;5.90;99.90
3262;DHT22;1643;47.746;9.000;2024-02-14T03:53:41;6.00;99.90
3262;DHT22;1643;47.746;9.000;2024-02-14T03:56:07;6.00;99.90
3262;DHT22;1643;47.746;9.000;2024-02-14T03:58:33;6.00;99.90
3262;DHT22;1643;47.746;9.000;2024-02-14T04:01:03;6.10;99.90
3262;DHT22;1643;47.746;9.000;2024-02-14T04:03:29;6.00;99.90
3262;DHT22;1643;47.746;9.000;2024-02-14T04:05:55;6.00;99.90
3262;DHT22;1643;47.746;9.000;2024-02-14T04:08:20;5.90;99.90
3262;DHT22;1643;47.746;9.000;2024-02-14T04:10:47;5.80;99.90
3262;DHT22;1643;47.746;9.000;2024-02-14T04:13:16;5.90;99.90
3262;DHT22;1643;47.746;9.000;2024-02-14T04:15:41;5.90;99.90
3262;DHT22;1643;47.746;9.000;2024-02-14T04:18:10;5.90;99.90
3262;DHT22;1643;47.746;9.000;2024-02-14T04:20:35;6.00;99.90
3262;DHT22;1643;47.746;9.000;2024-02-14T04:23:01;5.90;99.90
3262;DHT22;1643;47.746;9.000;2024-02-14T04:25:26;6.00;99.90
3262;DHT22;1643;47.746;9.000;2024-02-14T04:27:52;6.00;99.90
3262;DHT22;1643;47.746;9.000;2024-02-14T04:30:18;6.00;99.90
3262;DHT22;1643;47.746;9.000;2024-02-14T04:32:43;6.00;99.90
3262;DHT22;1643;47.746;9.000;2024-02-14T04:35:09;6.00;99.90
3262;DHT22;1643;47.746;9.000;2024-02-14T04:37:35;6.00;99.90
3262;DHT22;1643;47.746;9.000;2024-02-14T04:40:02;6.00;99.90
3262;DHT22;1643;47.746;9.000;2024-02-14T04:42:29;6.00;99.90
3262;DHT22;1643;47.746;9.000;2024-02-14T04:44:55;6.10;99.90
3262;DHT22;1643;47.746;9.000;2024-02-14T04:47:21;6.10;99.90
3262;DHT22;1643;47.746;9.000;2024-02-14T04:49:47;6.20;99.90
3262;DHT22;1643;47.746;9.000;2024-02-14T04:52:13;6.20;99.90
3262;DHT22;1643;47.746;9.000;2024-02-14T04:54:39;6.20;99.90
3262;DHT22;1643;47.746;9.000;2024-02-14T04:57:04;6.20;99.90
3262;DHT22;1643;47.746;9.000;2024-02-14T04:59:30;6.20;99.90
3262;DHT22;1643;47.746;9.000;2024-02-14T05:01:56;6.20;99.90
3262;DHT22;1643;47.746;9.000;2024-02-14T05:04:22;6.10;99.90
3262;DHT22;1643;47.746;9.000;2024-02-14T05:06:48;6.20;99.90
3262;DHT22;1643;47.746;9.000;2024-02-14T05:09:14;6.20;99.90
3262;DHT22;1643;47.746;9.000;2024-02-14T05:11:41;6.30;99.90
3262;DHT22;1643;47.746;9.000;2024-02-14T05:14:06;6.30;99.90
3262;DHT22;1643;47.746;9.000;2024-02-14T05:16:32;6.20;99.90
3262;DHT22;1643;47.746;9.000;2024-02-14T05:18:58;6.20;99.90
3262;DHT22;1643;47.746;9.000;2024-02-14T05:21:23;6.20;99.90
3262;DHT22;1643;47.746;9.000;2024-02-14T05:23:49;6.30;99.90
3262;DHT22;1643;47.746;9.000;2024-02-14T05:26:16;6.20;99.90
3262;DHT22;1643;47.746;9.000;2024-02-14T05:28:41;6.20;99.90
3262;DHT22;1643;47.746;9.000;2024-02-14T05:31:07;6.20;99.90
3262;DHT22;1643;47.746;9.000;2024-02-14T05:33:33;6.10;99.90
3262;DHT22;1643;47.746;9.000;2024-02-14T05:35:59;6.20;99.90
3262;DHT22;1643;47.746;9.000;2024-02-14T05:38:24;6.20;99.90
3262;DHT22;1643;47.746;9.000;2024-02-14T05:40:50;6.20;99.90
3262;DHT22;1643;47.746;9.000;2024-02-14T05:43:16;6.20;99.90
3262;DHT22;1643;47.746;9.000;2024-02-14T05:45:43;6.30;99.90
3262;DHT22;1643;47.746;9.000;2024-02-14T05:48:09;6.30;99.90
3262;DHT22;1643;47.746;9.000;2024-02-14T05:50:35;6.30;99.90
3262;DHT22;1643;47.746;9.000;2024-02-14T05:53:02;6.30;99.90
3262;DHT22;1643;47.746;9.000;2024-02-14T05:55:28;6.30;99.90
3262;DHT22;1643;47.746;9.000;2024-02-14T05:57:54;6.30;99.90
3262;DHT22;1643;47.746;9.000;2024-02-14T06:00:20;6.30;99.90
3262;DHT22;1643;47.746;9.000;2024-02-14T06:02:49;6.30;99.90
3262;DHT22;1643;47.746;9.000;2024-02-14T06:05:15;6.40;99.90
3262;DHT22;1643;47.746;9.000;2024-02-14T06:07:41;6.30;99.90
3262;DHT22;1643;47.746;9.000;2024-02-14T06:10:08;6.30;99.90
3262;DHT22;1643;47.746;9.000;2024-02-14T06:12:34;6.30;99.90
3262;DHT22;1643;47.746;9.000;2024-02-14T06:15:01;6.30;99.90
3262;DHT22;1643;47.746;9.000;2024-02-14T06:17:27;6.30;99.90
3262;DHT22;1643;47.746;9.000;2024-02-14T06:19:53;6.40;99.90
3262;DHT22;1643;47.746;9.000;2024-02-14T06:22:18;6.30;99.90
3262;DHT22;1643;47.746;9.000;2024-02-14T06:24:44;6.40;99.90
3262;DHT22;1643;47.746;9.000;2024-02-14T06:27:10;6.30;99.90
3262;DHT22;1643;47.746;9.000;2024-02-14T06:29:36;6.30;99.90
3262;DHT22;1643;47.746;9.000;2024-02-14T06:32:02;6.30;99.90
3262;DHT22;1643;47.746;9.000;2024-02-14T06:34:27;6.30;99.90
3262;DHT22;1643;47.746;9.000;2024-02-14T06:36:54;6.30;99.90
3262;DHT22;1643;47.746;9.000;2024-02-14T06:39:20;6.40;99.90
3262;DHT22;1643;47.746;9.000;2024-02-14T06:41:48;6.40;99.90
3262;DHT22;1643;47.746;9.000;2024-02-14T06:44:14;6.30;99.90
3262;DHT22;1643;47.746;9.000;2024-02-14T06:46:39;6.40;99.90
3262;DHT22;1643;47.746;9.000;2024-02-14T06:49:07;6.40;99.90
3262;DHT22;1643;47.746;9.000;2024-02-14T06:51:33;6.40;99.90
3262;DHT22;1643;47.746;9.000;2024-02-14T06:53:58;6.50;99.90
3262;DHT22;1643;47.746;9.000;2024-02-14T06:56:24;6.50;99.90
3262;DHT22;1643;47.746;9.000;2024-02-14T06:58:50;6.50;99.90
3262;DHT22;1643;47.746;9.000;2024-02-14T07:01:19;6.50;99.90
3262;DHT22;1643;47.746;9.000;2024-02-14T07:03:47;6.50;99.90
3262;DHT22;1643;47.746;9.000;2024-02-14T07:06:13;6.60;99.90
3262;DHT22;1643;47.746;9.000;2024-02-14T07:08:42;6.50;99.90
3262;DHT22;1643;47.746;9.000;2024-02-14T07:11:08;6.60;99.90
3262;DHT22;1643;47.746;9.000;2024-02-14T07:13:33;6.60;99.90
3262;DHT22;1643;47.746;9.000;2024-02-14T07:16:00;6.60;99.90
3262;DHT22;1643;47.746;9.000;2024-02-14T07:18:25;6.70;99.90
3262;DHT22;1643;47.746;9.000;2024-02-14T07:20:51;6.70;99.90
3262;DHT22;1643;47.746;9.000;2024-02-14T07:23:18;6.70;99.90
3262;DHT22;1643;47.746;9.000;2024-02-14T07:25:44;6.80;99.90
3262;DHT22;1643;47.746;9.000;2024-02-14T07:28:10;6.90;99.90
3262;DHT22;1643;47.746;9.000;2024-02-14T07:30:36;6.90;99.90
3262;DHT22;1643;47.746;9.000;2024-02-14T07:33:02;7.00;99.90
3262;DHT22;1643;47.746;9.000;2024-02-14T07:35:28;7.00;99.90
3262;DHT22;1643;47.746;9.000;2024-02-14T07:37:54;7.10;99.90
3262;DHT22;1643;47.746;9.000;2024-02-14T07:40:21;7.20;99.90
3262;DHT22;1643;47.746;9.000;2024-02-14T07:42:48;7.30;99.90
3262;DHT22;1643;47.746;9.000;2024-02-14T07:45:14;7.20;99.90
3262;DHT22;1643;47.746;9.000;2024-02-14T07:47:40;7.30;99.90
3262;DHT22;1643;47.746;9.000;2024-02-14T07:50:09;7.20;99.90
3262;DHT22;1643;47.746;9.000;2024-02-14T07:52:35;7.30;99.90
3262;DHT22;1643;47.746;9.000;2024-02-14T07:55:02;7.40;99.90
3262;DHT22;1643;47.746;9.000;2024-02-14T07:57:27;7.40;99.90
3262;DHT22;1643;47.746;9.000;2024-02-14T07:59:53;7.50;99.90
3262;DHT22;1643;47.746;9.000;2024-02-14T08:02:19;7.60;99.90
3262;DHT22;1643;47.746;9.000;2024-02-14T08:04:45;7.70;99.90
3262;DHT22;1643;47.746;9.000;2024-02-14T08:07:11;7.70;99.90
3262;DHT22;1643;47.746;9.000;2024-02-14T08:09:36;7.60;99.90
3262;DHT22;1643;47.746;9.000;2024-02-14T08:12:04;7.60;99.90
3262;DHT22;1643;47.746;9.000;2024-02-14T08:14:30;7.60;99.90
3262;DHT22;1643;47.746;9.000;2024-02-14T08:16:55;7.70;99.90
3262;DHT22;1643;47.746;9.000;2024-02-14T08:19:21;7.80;99.90
3262;DHT22;1643;47.746;9.000;2024-02-14T08:21:47;7.80;99.90
3262;DHT22;1643;47.746;9.000;2024-02-14T08:24:12;7.80;99.90
3262;DHT22;1643;47.746;9.000;2024-02-14T08:26:38;7.90;99.90
3262;DHT22;1643;47.746;9.000;2024-02-14T08:29:03;8.00;99.90
3262;DHT22;1643;47.746;9.000;2024-02-14T08:31:29;8.10;99.90
3262;DHT22;1643;47.746;9.000;2024-02-14T08:33:56;8.10;99.90
3262;DHT22;1643;47.746;9.000;2024-02-14T08:36:22;8.10;99.90
3262;DHT22;1643;47.746;9.000;2024-02-14T08:38:47;8.20;99.90
3262;DHT22;1643;47.746;9.000;2024-02-14T08:41:13;8.30;99.90
3262;DHT22;1643;47.746;9.000;2024-02-14T08:43:39;8.50;99.90
3262;DHT22;1643;47.746;9.000;2024-02-14T08:46:10;8.50;99.90
3262;DHT22;1643;47.746;9.000;2024-02-14T08:48:36;8.50;99.90
3262;DHT22;1643;47.746;9.000;2024-02-14T08:51:07;8.60;99.90
3262;DHT22;1643;47.746;9.000;2024-02-14T08:53:34;8.80;99.90
3262;DHT22;1643;47.746;9.000;2024-02-14T08:56:00;8.90;99.90
3262;DHT22;1643;47.746;9.000;2024-02-14T08:58:26;9.10;99.90
3262;DHT22;1643;47.746;9.000;2024-02-14T09:00:52;9.10;99.90
3262;DHT22;1643;47.746;9.000;2024-02-14T09:03:19;9.00;99.90
3262;DHT22;1643;47.746;9.000;2024-02-14T09:05:45;9.00;99.90
3262;DHT22;1643;47.746;9.000;2024-02-14T09:08:12;9.00;99.90
3262;DHT22;1643;47.746;9.000;2024-02-14T09:10:38;9.00;99.90
3262;DHT22;1643;47.746;9.000;2024-02-14T09:13:04;9.00;99.90
3262;DHT22;1643;47.746;9.000;2024-02-14T09:15:32;9.00;99.90
3262;DHT22;1643;47.746;9.000;2024-02-14T09:17:58;9.00;99.90
3262;DHT22;1643;47.746;9.000;2024-02-14T09:20:25;8.90;99.90
3262;DHT22;1643;47.746;9.000;2024-02-14T09:22:51;8.90;99.90
3262;DHT22;1643;47.746;9.000;2024-02-14T09:25:17;9.00;99.90
3262;DHT22;1643;47.746;9.000;2024-02-14T09:27:42;9.00;99.90
3262;DHT22;1643;47.746;9.000;2024-02-14T09:30:09;9.10;99.90
3262;DHT22;1643;47.746;9.000;2024-02-14T09:32:35;9.20;99.90
3262;DHT22;1643;47.746;9.000;2024-02-14T09:35:01;9.20;99.90
3262;DHT22;1643;47.746;9.000;2024-02-14T09:37:30;9.20;99.90
3262;DHT22;1643;47.746;9.000;2024-02-14T09:39:55;9.20;99.90
3262;DHT22;1643;47.746;9.000;2024-02-14T09:42:32;9.20;99.90
3262;DHT22;1643;47.746;9.000;2024-02-14T09:45:01;9.30;99.90
3262;DHT22;1643;47.746;9.000;2024-02-14T09:47:30;9.20;99.90
3262;DHT22;1643;47.746;9.000;2024-02-14T09:49:58;9.20;99.90
3262;DHT22;1643;47.746;9.000;2024-02-14T09:52:24;9.20;99.90
3262;DHT22;1643;47.746;9.000;2024-02-14T09:54:52;9.30;99.90
3262;DHT22;1643;47.746;9.000;2024-02-14T09:57:18;9.40;99.90
3262;DHT22;1643;47.746;9.000;2024-02-14T09:59:44;9.50;99.90
3262;DHT22;1643;47.746;9.000;2024-02-14T10:02:11;9.50;99.90
3262;DHT22;1643;47.746;9.000;2024-02-14T10:04:36;9.60;99.90
3262;DHT22;1643;47.746;9.000;2024-02-14T10:07:04;9.60;99.90
3262;DHT22;1643;47.746;9.000;2024-02-14T10:09:30;9.60;99.90
3262;DHT22;1643;47.746;9.000;2024-02-14T10:11:56;9.70;99.90
3262;DHT22;1643;47.746;9.000;2024-02-14T10:14:25;9.70;99.90
3262;DHT22;1643;47.746;9.000;2024-02-14T10:16:51;9.80;99.90
3262;DHT22;1643;47.746;9.000;2024-02-14T10:19:18;9.80;99.90
3262;DHT22;1643;47.746;9.000;2024-02-14T10:21:54;9.80;99.90
3262;DHT22;1643;47.746;9.000;2024-02-14T10:24:21;9.80;99.90
3262;DHT22;1643;47.746;9.000;2024-02-14T10:26:47;9.90;99.90
3262;DHT22;1643;47.746;9.000;2024-02-14T10:29:13;10.10;99.90
3262;DHT22;1643;47.746;9.000;2024-02-14T10:31:40;10.30;99.90
3262;DHT22;1643;47.746;9.000;2024-02-14T10:34:06;10.30;99.90
3262;DHT22;1643;47.746;9.000;2024-02-14T10:36:33;10.50;99.90
3262;DHT22;1643;47.746;9.000;2024-02-14T10:39:01;10.60;99.90
3262;DHT22;1643;47.746;9.000;2024-02-14T10:41:30;10.70;99.90
3262;DHT22;1643;47.746;9.000;2024-02-14T10:44:02;10.70;99.90
3262;DHT22;1643;47.746;9.000;2024-02-14T10:46:31;10.60;99.90
3262;DHT22;1643;47.746;9.000;2024-02-14T10:49:03;10.70;99.90
3262;DHT22;1643;47.746;9.000;2024-02-14T10:51:31;10.80;99.90
3262;DHT22;1643;47.746;9.000;2024-02-14T10:53:58;10.70;99.90
3262;DHT22;1643;47.746;9.000;2024-02-14T10:56:28;10.70;99.90
3262;DHT22;1643;47.746;9.000;2024-02-14T10:58:56;10.70;99.90
3262;DHT22;1643;47.746;9.000;2024-02-14T11:01:25;10.70;99.90
3262;DHT22;1643;47.746;9.000;2024-02-14T11:03:53;10.80;99.90
3262;DHT22;1643;47.746;9.000;2024-02-14T11:06:19;10.90;99.90
3262;DHT22;1643;47.746;9.000;2024-02-14T11:09:04;10.80;99.90
3262;DHT22;1643;47.746;9.000;2024-02-14T11:11:36;10.80;99.90
3262;DHT22;1643;47.746;9.000;2024-02-14T11:14:02;10.90;99.90
3262;DHT22;1643;47.746;9.000;2024-02-14T11:16:30;11.10;99.90
3262;DHT22;1643;47.746;9.000;2024-02-14T11:19:10;11.20;99.90
3262;DHT22;1643;47.746;9.000;2024-02-14T11:21:39;11.30;99.90
3262;DHT22;1643;47.746;9.000;2024-02-14T11:24:05;11.30;99.90
3262;DHT22;1643;47.746;9.000;2024-02-14T11:26:50;11.40;99.90
3262;DHT22;1643;47.746;9.000;2024-02-14T11:29:18;11.50;99.90
3262;DHT22;1643;47.746;9.000;2024-02-14T11:31:47;11.60;99.90
3262;DHT22;1643;47.746;9.000;2024-02-14T11:34:15;11.70;99.90
3262;DHT22;1643;47.746;9.000;2024-02-14T11:36:42;11.70;99.90
3262;DHT22;1643;47.746;9.000;2024-02-14T11:39:08;11.80;99.90
3262;DHT22;1643;47.746;9.000;2024-02-14T11:41:35;12.00;99.90
3262;DHT22;1643;47.746;9.000;2024-02-14T11:44:01;12.10;99.90
3262;DHT22;1643;47.746;9.000;2024-02-14T11:46:30;12.20;99.90
3262;DHT22;1643;47.746;9.000;2024-02-14T11:48:56;12.20;99.90
3262;DHT22;1643;47.746;9.000;2024-02-14T11:51:22;12.30;99.90
3262;DHT22;1643;47.746;9.000;2024-02-14T11:53:49;12.30;99.90
3262;DHT22;1643;47.746;9.000;2024-02-14T11:56:14;12.60;99.90
3262;DHT22;1643;47.746;9.000;2024-02-14T11:58:41;12.60;99.90
3262;DHT22;1643;47.746;9.000;2024-02-14T12:01:07;12.80;99.90
3262;DHT22;1643;47.746;9.000;2024-02-14T12:03:34;12.70;99.90
3262;DHT22;1643;47.746;9.000;2024-02-14T12:06:01;12.70;99.90
3262;DHT22;1643;47.746;9.000;2024-02-14T12:08:28;12.90;99.90
3262;DHT22;1643;47.746;9.000;2024-02-14T12:10:54;12.90;99.90
3262;DHT22;1643;47.746;9.000;2024-02-14T12:13:21;12.80;99.90
3262;DHT22;1643;47.746;9.000;2024-02-14T12:15:48;12.90;99.90
3262;DHT22;1643;47.746;9.000;2024-02-14T12:18:15;13.00;99.90
3262;DHT22;1643;47.746;9.000;2024-02-14T12:20:42;13.00;99.90
3262;DHT22;1643;47.746;9.000;2024-02-14T12:23:18;13.00;99.90
3262;DHT22;1643;47.746;9.000;2024-02-14T12:25:44;13.10;99.90
3262;DHT22;1643;47.746;9.000;2024-02-14T12:28:20;13.30;99.90
3262;DHT22;1643;47.746;9.000;2024-02-14T12:30:50;13.50;99.90
3262;DHT22;1643;47.746;9.000;2024-02-14T12:33:22;13.50;99.90
3262;DHT22;1643;47.746;9.000;2024-02-14T12:35:49;13.80;99.90
3262;DHT22;1643;47.746;9.000;2024-02-14T12:38:17;13.90;99.90
3262;DHT22;1643;47.746;9.000;2024-02-14T12:40:43;14.00;99.90
3262;DHT22;1643;47.746;9.000;2024-02-14T12:43:13;14.00;99.90
3262;DHT22;1643;47.746;9.000;2024-02-14T12:45:39;13.90;99.90
3262;DHT22;1643;47.746;9.000;2024-02-14T12:48:09;13.90;99.90
3262;DHT22;1643;47.746;9.000;2024-02-14T12:50:35;14.00;99.90
3262;DHT22;1643;47.746;9.000;2024-02-14T12:53:06;14.00;99.90
3262;DHT22;1643;47.746;9.000;2024-02-14T12:55:32;13.90;99.90
3262;DHT22;1643;47.746;9.000;2024-02-14T12:57:58;13.90;99.90
3262;DHT22;1643;47.746;9.000;2024-02-14T13:00:24;13.80;99.90
3262;DHT22;1643;47.746;9.000;2024-02-14T13:02:50;13.80;99.90
3262;DHT22;1643;47.746;9.000;2024-02-14T13:05:16;13.80;99.90
3262;DHT22;1643;47.746;9.000;2024-02-14T13:07:43;13.70;99.90
3262;DHT22;1643;47.746;9.000;2024-02-14T13:10:09;13.80;99.90
3262;DHT22;1643;47.746;9.000;2024-02-14T13:12:36;13.80;99.90
3262;DHT22;1643;47.746;9.000;2024-02-14T13:15:03;13.80;99.90
3262;DHT22;1643;47.746;9.000;2024-02-14T13:17:29;13.60;99.90
3262;DHT22;1643;47.746;9.000;2024-02-14T13:19:55;13.60;99.90
3262;DHT22;1643;47.746;9.000;2024-02-14T13:22:21;13.50;99.90
3262;DHT22;1643;47.746;9.000;2024-02-14T13:24:46;13.60;99.90
3262;DHT22;1643;47.746;9.000;2024-02-14T13:27:12;13.70;99.90
3262;DHT22;1643;47.746;9.000;2024-02-14T13:29:38;13.70;99.90
3262;DHT22;1643;47.746;9.000;2024-02-14T13:32:04;13.80;99.90
3262;DHT22;1643;47.746;9.000;2024-02-14T13:34:33;13.70;99.90
3262;DHT22;1643;47.746;9.000;2024-02-14T13:36:59;13.80;99.90
3262;DHT22;1643;47.746;9.000;2024-02-14T13:39:25;13.80;99.90
3262;DHT22;1643;47.746;9.000;2024-02-14T13:41:50;13.80;99.90
3262;DHT22;1643;47.746;9.000;2024-02-14T13:44:17;14.00;99.90
3262;DHT22;1643;47.746;9.000;2024-02-14T13:46:44;14.10;99.90
3262;DHT22;1643;47.746;9.000;2024-02-14T13:49:11;14.10;99.90
3262;DHT22;1643;47.746;9.000;2024-02-14T13:51:38;14.20;99.90
3262;DHT22;1643;47.746;9.000;2024-02-14T13:54:04;14.10;99.90
3262;DHT22;1643;47.746;9.000;2024-02-14T13:56:29;14.00;99.90
3262;DHT22;1643;47.746;9.000;2024-02-14T13:58:55;13.90;99.90
3262;DHT22;1643;47.746;9.000;2024-02-14T14:01:21;13.80;99.90
3262;DHT22;1643;47.746;9.000;2024-02-14T14:03:47;13.80;99.90
3262;DHT22;1643;47.746;9.000;2024-02-14T14:06:13;13.70;99.90
3262;DHT22;1643;47.746;9.000;2024-02-14T14:08:39;13.80;99.90
3262;DHT22;1643;47.746;9.000;2024-02-14T14:11:05;13.80;99.90
3262;DHT22;1643;47.746;9.000;2024-02-14T14:13:31;13.80;99.90
3262;DHT22;1643;47.746;9.000;2024-02-14T14:16:01;13.90;99.90
3262;DHT22;1643;47.746;9.000;2024-02-14T14:18:30;13.80;99.90
3262;DHT22;1643;47.746;9.000;2024-02-14T14:20:56;13.70;99.90
3262;DHT22;1643;47.746;9.000;2024-02-14T14:23:22;13.70;99.90
3262;DHT22;1643;47.746;9.000;2024-02-14T14:25:47;13.60;99.90
3262;DHT22;1643;47.746;9.000;2024-02-14T14:28:13;13.60;99.90
3262;DHT22;1643;47.746;9.000;2024-02-14T14:30:40;13.60;99.90
3262;DHT22;1643;47.746;9.000;2024-02-14T14:33:06;13.60;99.90
3262;DHT22;1643;47.746;9.000;2024-02-14T14:35:33;13.50;99.90
3262;DHT22;1643;47.746;9.000;2024-02-14T14:37:59;13.50;99.90
3262;DHT22;1643;47.746;9.000;2024-02-14T14:40:25;13.50;99.90
3262;DHT22;1643;47.746;9.000;2024-02-14T14:42:51;13.50;99.90
3262;DHT22;1643;47.746;9.000;2024-02-14T14:45:16;13.40;99.90
3262;DHT22;1643;47.746;9.000;2024-02-14T14:47:42;13.30;99.90
3262;DHT22;1643;47.746;9.000;2024-02-14T14:50:08;13.30;99.90
3262;DHT22;1643;47.746;9.000;2024-02-14T14:52:34;13.40;99.90
3262;DHT22;1643;47.746;9.000;2024-02-14T14:55:00;13.40;99.90
3262;DHT22;1643;47.746;9.000;2024-02-14T14:57:25;13.50;99.90
3262;DHT22;1643;47.746;9.000;2024-02-14T14:59:55;13.50;99.90
3262;DHT22;1643;47.746;9.000;2024-02-14T15:02:21;13.50;99.90
3262;DHT22;1643;47.746;9.000;2024-02-14T15:04:47;13.50;99.90
3262;DHT22;1643;47.746;9.000;2024-02-14T15:07:13;13.40;99.90
3262;DHT22;1643;47.746;9.000;2024-02-14T15:09:39;13.40;99.90
3262;DHT22;1643;47.746;9.000;2024-02-14T15:12:05;13.40;99.90
3262;DHT22;1643;47.746;9.000;2024-02-14T15:14:31;13.30;99.90
3262;DHT22;1643;47.746;9.000;2024-02-14T15:16:56;13.20;99.90
3262;DHT22;1643;47.746;9.000;2024-02-14T15:19:22;13.20;99.90
3262;DHT22;1643;47.746;9.000;2024-02-14T15:21:50;13.10;99.90
3262;DHT22;1643;47.746;9.000;2024-02-14T15:24:16;13.10;99.90
3262;DHT22;1643;47.746;9.000;2024-02-14T15:26:41;13.00;99.90
3262;DHT22;1643;47.746;9.000;2024-02-14T15:29:24;13.00;99.90
3262;DHT22;1643;47.746;9.000;2024-02-14T15:32:08;13.00;99.90
3262;DHT22;1643;47.746;9.000;2024-02-14T15:34:54;13.00;99.90
3262;DHT22;1643;47.746;9.000;2024-02-14T15:37:21;13.00;99.90
3262;DHT22;1643;47.746;9.000;2024-02-14T15:39:47;13.00;99.90
3262;DHT22;1643;47.746;9.000;2024-02-14T15:42:13;13.00;99.90
3262;DHT22;1643;47.746;9.000;2024-02-14T15:44:39;13.00;99.90
3262;DHT22;1643;47.746;9.000;2024-02-14T15:47:04;13.00;99.90
3262;DHT22;1643;47.746;9.000;2024-02-14T15:49:30;12.90;99.90
3262;DHT22;1643;47.746;9.000;2024-02-14T15:51:56;12.90;99.90
3262;DHT22;1643;47.746;9.000;2024-02-14T15:54:21;12.80;99.90
3262;DHT22;1643;47.746;9.000;2024-02-14T15:56:47;12.70;99.90
3262;DHT22;1643;47.746;9.000;2024-02-14T15:59:13;12.70;99.90
3262;DHT22;1643;47.746;9.000;2024-02-14T16:01:41;12.70;99.90
3262;DHT22;1643;47.746;9.000;2024-02-14T16:04:07;12.80;99.90
3262;DHT22;1643;47.746;9.000;2024-02-14T16:06:33;12.70;99.90
3262;DHT22;1643;47.746;9.000;2024-02-14T16:09:01;12.80;99.90